sensor_id;sensor_type;location;lat;lon;timestamp;P1;durP1;ratioP1;P2;durP2;ratioP2
47856;SDS011;33618;49.972;8.242;2022-11-12T00:01:05;25.92;;;8.70;;
47856;SDS011;33618;49.972;8.242;2022-11-12T00:03:32;65.82;;;9.35;;
47856;SDS011;33618;49.972;8.242;2022-11-12T00:06:00;37.10;;;8.70;;
47856;SDS011;33618;49.972;8.242;2022-11-12T00:08:27;64.43;;;9.73;;
47856;SDS011;33618;49.972;8.242;2022-11-12T00:10:55;24.67;;;8.10;;
47856;SDS011;33618;49.972;8.242;2022-11-12T00:13:22;17.73;;;8.05;;
47856;SDS011;33618;49.972;8.242;2022-11-12T00:15:49;20.13;;;8.43;;
47856;SDS011;33618;49.972;8.242;2022-11-12T00:18:16;21.58;;;8.70;;
47856;SDS011;33618;49.972;8.242;2022-11-12T00:20:43;34.85;;;8.75;;
47856;SDS011;33618;49.972;8.242;2022-11-12T00:23:10;25.48;;;9.20;;
47856;SDS011;33618;49.972;8.242;2022-11-12T00:25:37;28.67;;;9.20;;
47856;SDS011;33618;49.972;8.242;2022-11-12T00:28:08;31.90;;;8.75;;
47856;SDS011;33618;49.972;8.242;2022-11-12T00:30:37;23.65;;;8.32;;
47856;SDS011;33618;49.972;8.242;2022-11-12T00:33:05;19.73;;;9.02;;
47856;SDS011;33618;49.972;8.242;2022-11-12T00:35:32;32.90;;;8.80;;
47856;SDS011;33618;49.972;8.242;2022-11-12T00:38:00;72.03;;;10.18;;
47856;SDS011;33618;49.972;8.242;2022-11-12T00:40:27;57.85;;;8.65;;
47856;SDS011;33618;49.972;8.242;2022-11-12T00:42:55;30.15;;;8.98;;
47856;SDS011;33618;49.972;8.242;2022-11-12T00:45:22;37.15;;;8.77;;
47856;SDS011;33618;49.972;8.242;2022-11-12T00:47:49;32.42;;;8.63;;
47856;SDS011;33618;49.972;8.242;2022-11-12T00:50:21;26.90;;;8.65;;
47856;SDS011;33618;49.972;8.242;2022-11-12T00:52:50;34.30;;;8.10;;
47856;SDS011;33618;49.972;8.242;2022-11-12T00:55:20;23.58;;;8.27;;
47856;SDS011;33618;49.972;8.242;2022-11-12T00:57:47;21.58;;;7.70;;
47856;SDS011;33618;49.972;8.242;2022-11-12T01:00:17;26.33;;;8.63;;
47856;SDS011;33618;49.972;8.242;2022-11-12T01:02:44;33.40;;;8.52;;
47856;SDS011;33618;49.972;8.242;2022-11-12T01:05:17;27.35;;;8.32;;
47856;SDS011;33618;49.972;8.242;2022-11-12T01:07:45;64.32;;;8.75;;
47856;SDS011;33618;49.972;8.242;2022-11-12T01:10:18;18.40;;;8.07;;
47856;SDS011;33618;49.972;8.242;2022-11-12T01:12:45;43.55;;;8.75;;
47856;SDS011;33618;49.972;8.242;2022-11-12T01:15:12;25.67;;;8.40;;
47856;SDS011;33618;49.972;8.242;2022-11-12T01:17:39;28.63;;;7.88;;
47856;SDS011;33618;49.972;8.242;2022-11-12T01:20:06;36.75;;;9.38;;
47856;SDS011;33618;49.972;8.242;2022-11-12T01:22:33;72.15;;;8.35;;
47856;SDS011;33618;49.972;8.242;2022-11-12T01:25:00;78.32;;;9.55;;
47856;SDS011;33618;49.972;8.242;2022-11-12T01:27:27;22.17;;;8.50;;
47856;SDS011;33618;49.972;8.242;2022-11-12T01:29:54;101.35;;;10.02;;
47856;SDS011;33618;49.972;8.242;2022-11-12T01:32:21;59.40;;;8.52;;
47856;SDS011;33618;49.972;8.242;2022-11-12T01:34:49;20.02;;;7.80;;
47856;SDS011;33618;49.972;8.242;2022-11-12T01:37:16;30.38;;;8.23;;
47856;SDS011;33618;49.972;8.242;2022-11-12T01:39:43;63.72;;;7.88;;
47856;SDS011;33618;49.972;8.242;2022-11-12T01:42:10;38.78;;;7.93;;
47856;SDS011;33618;49.972;8.242;2022-11-12T01:44:38;63.72;;;7.60;;
47856;SDS011;33618;49.972;8.242;2022-11-12T01:50:01;103.80;;;9.93;;
47856;SDS011;33618;49.972;8.242;2022-11-12T01:52:47;24.77;;;7.70;;
47856;SDS011;33618;49.972;8.242;2022-11-12T01:55:25;98.97;;;8.73;;
47856;SDS011;33618;49.972;8.242;2022-11-12T02:00:33;23.67;;;7.32;;
47856;SDS011;33618;49.972;8.242;2022-11-12T02:03:01;20.48;;;6.85;;
47856;SDS011;33618;49.972;8.242;2022-11-12T02:05:31;19.73;;;6.75;;
47856;SDS011;33618;49.972;8.242;2022-11-12T02:07:59;77.55;;;7.80;;
47856;SDS011;33618;49.972;8.242;2022-11-12T02:10:26;42.42;;;6.80;;
47856;SDS011;33618;49.972;8.242;2022-11-12T02:12:53;13.52;;;6.63;;
47856;SDS011;33618;49.972;8.242;2022-11-12T02:15:40;19.13;;;7.00;;
47856;SDS011;33618;49.972;8.242;2022-11-12T02:18:09;15.57;;;6.03;;
47856;SDS011;33618;49.972;8.242;2022-11-12T02:20:37;26.40;;;6.70;;
47856;SDS011;33618;49.972;8.242;2022-11-12T02:23:05;20.63;;;6.55;;
47856;SDS011;33618;49.972;8.242;2022-11-12T02:25:33;24.05;;;5.85;;
47856;SDS011;33618;49.972;8.242;2022-11-12T02:28:05;22.90;;;6.53;;
47856;SDS011;33618;49.972;8.242;2022-11-12T02:33:05;16.63;;;6.22;;
47856;SDS011;33618;49.972;8.242;2022-11-12T02:35:32;22.70;;;5.97;;
47856;SDS011;33618;49.972;8.242;2022-11-12T02:37:59;13.20;;;5.78;;
47856;SDS011;33618;49.972;8.242;2022-11-12T02:40:27;27.00;;;6.10;;
47856;SDS011;33618;49.972;8.242;2022-11-12T02:42:54;37.45;;;6.22;;
47856;SDS011;33618;49.972;8.242;2022-11-12T02:45:21;46.17;;;5.75;;
47856;SDS011;33618;49.972;8.242;2022-11-12T02:47:48;12.43;;;5.57;;
47856;SDS011;33618;49.972;8.242;2022-11-12T02:50:16;37.88;;;8.05;;
47856;SDS011;33618;49.972;8.242;2022-11-12T02:52:44;38.42;;;6.75;;
47856;SDS011;33618;49.972;8.242;2022-11-12T02:55:11;110.57;;;7.88;;
47856;SDS011;33618;49.972;8.242;2022-11-12T02:57:39;105.15;;;7.75;;
47856;SDS011;33618;49.972;8.242;2022-11-12T03:00:07;68.70;;;7.03;;
47856;SDS011;33618;49.972;8.242;2022-11-12T03:02:36;41.78;;;6.30;;
47856;SDS011;33618;49.972;8.242;2022-11-12T03:05:32;45.42;;;6.38;;
47856;SDS011;33618;49.972;8.242;2022-11-12T03:08:01;29.17;;;6.25;;
47856;SDS011;33618;49.972;8.242;2022-11-12T03:10:29;20.25;;;6.22;;
47856;SDS011;33618;49.972;8.242;2022-11-12T03:12:58;20.73;;;6.28;;
47856;SDS011;33618;49.972;8.242;2022-11-12T03:15:26;29.73;;;6.68;;
47856;SDS011;33618;49.972;8.242;2022-11-12T03:17:58;27.85;;;6.93;;
47856;SDS011;33618;49.972;8.242;2022-11-12T03:20:25;33.05;;;6.40;;
47856;SDS011;33618;49.972;8.242;2022-11-12T03:22:58;36.42;;;6.70;;
47856;SDS011;33618;49.972;8.242;2022-11-12T03:25:27;22.15;;;5.65;;
47856;SDS011;33618;49.972;8.242;2022-11-12T03:27:59;13.02;;;6.10;;
47856;SDS011;33618;49.972;8.242;2022-11-12T03:30:36;25.63;;;6.10;;
47856;SDS011;33618;49.972;8.242;2022-11-12T03:33:04;40.55;;;6.25;;
47856;SDS011;33618;49.972;8.242;2022-11-12T03:35:33;46.70;;;7.22;;
47856;SDS011;33618;49.972;8.242;2022-11-12T03:38:01;36.47;;;6.07;;
47856;SDS011;33618;49.972;8.242;2022-11-12T03:40:29;30.15;;;5.45;;
47856;SDS011;33618;49.972;8.242;2022-11-12T03:42:56;53.22;;;6.50;;
47856;SDS011;33618;49.972;8.242;2022-11-12T03:45:24;25.80;;;5.70;;
47856;SDS011;33618;49.972;8.242;2022-11-12T03:47:54;14.48;;;5.60;;
47856;SDS011;33618;49.972;8.242;2022-11-12T03:50:23;27.30;;;6.15;;
47856;SDS011;33618;49.972;8.242;2022-11-12T03:52:52;22.77;;;5.90;;
47856;SDS011;33618;49.972;8.242;2022-11-12T03:55:22;30.55;;;6.03;;
47856;SDS011;33618;49.972;8.242;2022-11-12T03:57:50;39.35;;;6.60;;
47856;SDS011;33618;49.972;8.242;2022-11-12T04:00:19;17.92;;;6.57;;
47856;SDS011;33618;49.972;8.242;2022-11-12T04:02:48;18.50;;;6.47;;
47856;SDS011;33618;49.972;8.242;2022-11-12T04:05:16;16.58;;;5.90;;
47856;SDS011;33618;49.972;8.242;2022-11-12T04:08:06;37.10;;;5.65;;
47856;SDS011;33618;49.972;8.242;2022-11-12T04:11:03;55.17;;;6.22;;
47856;SDS011;33618;49.972;8.242;2022-11-12T04:13:41;49.45;;;7.35;;
47856;SDS011;33618;49.972;8.242;2022-11-12T04:16:14;23.83;;;5.85;;
47856;SDS011;33618;49.972;8.242;2022-11-12T04:19:04;31.42;;;5.72;;
47856;SDS011;33618;49.972;8.242;2022-11-12T04:21:51;15.77;;;5.57;;
47856;SDS011;33618;49.972;8.242;2022-11-12T04:27:09;20.58;;;5.88;;
47856;SDS011;33618;49.972;8.242;2022-11-12T04:29:41;64.65;;;7.07;;
47856;SDS011;33618;49.972;8.242;2022-11-12T04:34:55;35.55;;;5.50;;
47856;SDS011;33618;49.972;8.242;2022-11-12T04:37:24;19.05;;;5.32;;
47856;SDS011;33618;49.972;8.242;2022-11-12T04:39:52;46.75;;;5.95;;
47856;SDS011;33618;49.972;8.242;2022-11-12T04:42:19;45.97;;;6.25;;
47856;SDS011;33618;49.972;8.242;2022-11-12T04:45:09;50.67;;;6.70;;
47856;SDS011;33618;49.972;8.242;2022-11-12T04:47:37;46.63;;;8.57;;
47856;SDS011;33618;49.972;8.242;2022-11-12T04:50:07;37.03;;;6.90;;
47856;SDS011;33618;49.972;8.242;2022-11-12T04:52:39;26.13;;;6.68;;
47856;SDS011;33618;49.972;8.242;2022-11-12T04:55:06;41.58;;;6.20;;
47856;SDS011;33618;49.972;8.242;2022-11-12T04:57:34;27.38;;;6.78;;
47856;SDS011;33618;49.972;8.242;2022-11-12T05:00:01;114.22;;;7.65;;
47856;SDS011;33618;49.972;8.242;2022-11-12T05:02:32;27.63;;;6.28;;
47856;SDS011;33618;49.972;8.242;2022-11-12T05:04:59;63.08;;;6.80;;
47856;SDS011;33618;49.972;8.242;2022-11-12T05:07:27;71.15;;;7.47;;
47856;SDS011;33618;49.972;8.242;2022-11-12T05:09:54;30.55;;;6.05;;
47856;SDS011;33618;49.972;8.242;2022-11-12T05:12:21;29.02;;;6.72;;
47856;SDS011;33618;49.972;8.242;2022-11-12T05:14:48;34.15;;;5.95;;
47856;SDS011;33618;49.972;8.242;2022-11-12T05:17:15;60.45;;;6.85;;
47856;SDS011;33618;49.972;8.242;2022-11-12T05:19:42;32.28;;;6.28;;
47856;SDS011;33618;49.972;8.242;2022-11-12T05:22:10;15.18;;;6.28;;
47856;SDS011;33618;49.972;8.242;2022-11-12T05:24:57;24.40;;;6.18;;
47856;SDS011;33618;49.972;8.242;2022-11-12T05:27:24;55.38;;;8.05;;
47856;SDS011;33618;49.972;8.242;2022-11-12T05:29:51;83.70;;;8.50;;
47856;SDS011;33618;49.972;8.242;2022-11-12T05:32:18;29.27;;;7.32;;
47856;SDS011;33618;49.972;8.242;2022-11-12T05:34:45;47.17;;;8.02;;
47856;SDS011;33618;49.972;8.242;2022-11-12T05:37:12;56.95;;;8.23;;
47856;SDS011;33618;49.972;8.242;2022-11-12T05:39:40;31.50;;;8.43;;
47856;SDS011;33618;49.972;8.242;2022-11-12T05:42:07;41.60;;;8.20;;
47856;SDS011;33618;49.972;8.242;2022-11-12T05:44:39;56.70;;;8.65;;
47856;SDS011;33618;49.972;8.242;2022-11-12T05:47:06;78.53;;;9.40;;
47856;SDS011;33618;49.972;8.242;2022-11-12T05:49:33;66.60;;;9.02;;
47856;SDS011;33618;49.972;8.242;2022-11-12T05:52:00;71.00;;;8.65;;
47856;SDS011;33618;49.972;8.242;2022-11-12T05:54:27;29.55;;;8.20;;
47856;SDS011;33618;49.972;8.242;2022-11-12T05:56:54;37.80;;;8.30;;
47856;SDS011;33618;49.972;8.242;2022-11-12T05:59:21;28.85;;;7.60;;
47856;SDS011;33618;49.972;8.242;2022-11-12T06:01:49;37.63;;;8.00;;
47856;SDS011;33618;49.972;8.242;2022-11-12T06:04:17;53.72;;;7.30;;
47856;SDS011;33618;49.972;8.242;2022-11-12T06:06:44;28.67;;;6.80;;
47856;SDS011;33618;49.972;8.242;2022-11-12T06:09:11;37.83;;;6.93;;
47856;SDS011;33618;49.972;8.242;2022-11-12T06:11:38;26.13;;;6.30;;
47856;SDS011;33618;49.972;8.242;2022-11-12T06:14:09;16.35;;;5.63;;
47856;SDS011;33618;49.972;8.242;2022-11-12T06:16:36;22.63;;;5.55;;
47856;SDS011;33618;49.972;8.242;2022-11-12T06:19:05;26.70;;;6.00;;
47856;SDS011;33618;49.972;8.242;2022-11-12T06:21:32;25.75;;;6.25;;
47856;SDS011;33618;49.972;8.242;2022-11-12T06:23:59;18.98;;;5.63;;
47856;SDS011;33618;49.972;8.242;2022-11-12T06:26:28;19.20;;;5.93;;
47856;SDS011;33618;49.972;8.242;2022-11-12T06:28:59;18.17;;;6.55;;
47856;SDS011;33618;49.972;8.242;2022-11-12T06:31:26;21.10;;;6.25;;
47856;SDS011;33618;49.972;8.242;2022-11-12T06:33:53;36.58;;;6.25;;
47856;SDS011;33618;49.972;8.242;2022-11-12T06:36:20;19.20;;;6.07;;
47856;SDS011;33618;49.972;8.242;2022-11-12T06:38:47;23.65;;;6.95;;
47856;SDS011;33618;49.972;8.242;2022-11-12T06:41:18;26.08;;;7.10;;
47856;SDS011;33618;49.972;8.242;2022-11-12T06:43:45;16.67;;;7.35;;
47856;SDS011;33618;49.972;8.242;2022-11-12T06:46:14;22.85;;;7.57;;
47856;SDS011;33618;49.972;8.242;2022-11-12T06:48:41;31.35;;;7.57;;
47856;SDS011;33618;49.972;8.242;2022-11-12T06:51:10;26.30;;;6.88;;
47856;SDS011;33618;49.972;8.242;2022-11-12T06:53:43;19.33;;;7.07;;
47856;SDS011;33618;49.972;8.242;2022-11-12T06:56:10;20.25;;;7.15;;
47856;SDS011;33618;49.972;8.242;2022-11-12T06:58:38;15.18;;;6.65;;
47856;SDS011;33618;49.972;8.242;2022-11-12T07:01:13;16.95;;;6.80;;
47856;SDS011;33618;49.972;8.242;2022-11-12T07:03:42;32.10;;;8.30;;
47856;SDS011;33618;49.972;8.242;2022-11-12T07:06:13;29.20;;;7.07;;
47856;SDS011;33618;49.972;8.242;2022-11-12T07:08:45;21.20;;;10.40;;
47856;SDS011;33618;49.972;8.242;2022-11-12T07:11:12;17.13;;;7.32;;
47856;SDS011;33618;49.972;8.242;2022-11-12T07:13:40;19.55;;;7.90;;
47856;SDS011;33618;49.972;8.242;2022-11-12T07:16:08;14.90;;;7.60;;
47856;SDS011;33618;49.972;8.242;2022-11-12T07:18:36;30.38;;;7.50;;
47856;SDS011;33618;49.972;8.242;2022-11-12T07:21:07;24.75;;;7.38;;
47856;SDS011;33618;49.972;8.242;2022-11-12T07:23:36;26.13;;;7.30;;
47856;SDS011;33618;49.972;8.242;2022-11-12T07:26:04;15.07;;;6.78;;
47856;SDS011;33618;49.972;8.242;2022-11-12T07:28:33;25.50;;;7.60;;
47856;SDS011;33618;49.972;8.242;2022-11-12T07:31:04;21.08;;;7.60;;
47856;SDS011;33618;49.972;8.242;2022-11-12T07:33:34;32.05;;;7.65;;
47856;SDS011;33618;49.972;8.242;2022-11-12T07:36:08;17.33;;;7.95;;
47856;SDS011;33618;49.972;8.242;2022-11-12T07:38:36;18.13;;;7.80;;
47856;SDS011;33618;49.972;8.242;2022-11-12T07:41:10;13.10;;;8.00;;
47856;SDS011;33618;49.972;8.242;2022-11-12T07:43:43;26.33;;;8.30;;
47856;SDS011;33618;49.972;8.242;2022-11-12T07:46:31;21.98;;;8.73;;
47856;SDS011;33618;49.972;8.242;2022-11-12T07:48:57;32.38;;;8.27;;
47856;SDS011;33618;49.972;8.242;2022-11-12T07:51:26;25.88;;;8.68;;
47856;SDS011;33618;49.972;8.242;2022-11-12T07:53:56;20.40;;;9.20;;
47856;SDS011;33618;49.972;8.242;2022-11-12T07:56:25;15.85;;;8.68;;
47856;SDS011;33618;49.972;8.242;2022-11-12T07:58:53;20.60;;;9.18;;
47856;SDS011;33618;49.972;8.242;2022-11-12T08:03:54;24.33;;;8.93;;
47856;SDS011;33618;49.972;8.242;2022-11-12T08:06:21;25.10;;;9.15;;
47856;SDS011;33618;49.972;8.242;2022-11-12T08:08:53;15.90;;;9.23;;
47856;SDS011;33618;49.972;8.242;2022-11-12T08:11:23;21.27;;;9.93;;
47856;SDS011;33618;49.972;8.242;2022-11-12T08:13:50;20.15;;;9.88;;
47856;SDS011;33618;49.972;8.242;2022-11-12T08:16:18;19.00;;;9.23;;
47856;SDS011;33618;49.972;8.242;2022-11-12T08:18:45;17.55;;;10.13;;
47856;SDS011;33618;49.972;8.242;2022-11-12T08:21:17;26.70;;;11.45;;
47856;SDS011;33618;49.972;8.242;2022-11-12T08:23:44;17.23;;;9.50;;
47856;SDS011;33618;49.972;8.242;2022-11-12T08:26:12;32.72;;;9.90;;
47856;SDS011;33618;49.972;8.242;2022-11-12T08:28:41;16.70;;;9.77;;
47856;SDS011;33618;49.972;8.242;2022-11-12T08:31:15;13.75;;;9.13;;
47856;SDS011;33618;49.972;8.242;2022-11-12T08:33:44;17.42;;;10.13;;
47856;SDS011;33618;49.972;8.242;2022-11-12T08:36:12;23.48;;;9.70;;
47856;SDS011;33618;49.972;8.242;2022-11-12T08:38:43;14.23;;;9.38;;
47856;SDS011;33618;49.972;8.242;2022-11-12T08:41:11;18.42;;;9.68;;
47856;SDS011;33618;49.972;8.242;2022-11-12T08:43:40;17.27;;;9.02;;
47856;SDS011;33618;49.972;8.242;2022-11-12T08:46:12;15.00;;;8.98;;
47856;SDS011;33618;49.972;8.242;2022-11-12T08:48:39;16.70;;;9.15;;
47856;SDS011;33618;49.972;8.242;2022-11-12T08:51:06;13.77;;;8.70;;
47856;SDS011;33618;49.972;8.242;2022-11-12T08:53:34;17.83;;;9.38;;
47856;SDS011;33618;49.972;8.242;2022-11-12T08:56:01;16.85;;;10.00;;
47856;SDS011;33618;49.972;8.242;2022-11-12T08:58:34;17.10;;;9.43;;
47856;SDS011;33618;49.972;8.242;2022-11-12T09:01:05;15.05;;;9.38;;
47856;SDS011;33618;49.972;8.242;2022-11-12T09:03:33;14.73;;;8.75;;
47856;SDS011;33618;49.972;8.242;2022-11-12T09:06:01;14.13;;;9.25;;
47856;SDS011;33618;49.972;8.242;2022-11-12T09:08:31;13.77;;;9.00;;
47856;SDS011;33618;49.972;8.242;2022-11-12T09:11:00;13.48;;;8.77;;
47856;SDS011;33618;49.972;8.242;2022-11-12T09:13:27;21.95;;;8.63;;
47856;SDS011;33618;49.972;8.242;2022-11-12T09:16:01;19.23;;;9.20;;
47856;SDS011;33618;49.972;8.242;2022-11-12T09:18:30;17.77;;;9.40;;
47856;SDS011;33618;49.972;8.242;2022-11-12T09:21:07;18.70;;;10.00;;
47856;SDS011;33618;49.972;8.242;2022-11-12T09:23:39;20.85;;;9.73;;
47856;SDS011;33618;49.972;8.242;2022-11-12T09:26:06;22.17;;;9.75;;
47856;SDS011;33618;49.972;8.242;2022-11-12T09:28:33;25.73;;;9.85;;
47856;SDS011;33618;49.972;8.242;2022-11-12T09:31:00;22.80;;;9.90;;
47856;SDS011;33618;49.972;8.242;2022-11-12T09:33:31;23.55;;;9.38;;
47856;SDS011;33618;49.972;8.242;2022-11-12T09:35:59;17.42;;;9.88;;
47856;SDS011;33618;49.972;8.242;2022-11-12T09:38:28;24.38;;;9.80;;
47856;SDS011;33618;49.972;8.242;2022-11-12T09:41:00;15.48;;;8.98;;
47856;SDS011;33618;49.972;8.242;2022-11-12T09:43:49;14.85;;;9.13;;
47856;SDS011;33618;49.972;8.242;2022-11-12T09:46:23;16.33;;;9.48;;
47856;SDS011;33618;49.972;8.242;2022-11-12T09:49:02;16.17;;;9.23;;
47856;SDS011;33618;49.972;8.242;2022-11-12T09:51:48;15.93;;;9.63;;
47856;SDS011;33618;49.972;8.242;2022-11-12T09:54:18;21.90;;;10.30;;
47856;SDS011;33618;49.972;8.242;2022-11-12T09:56:52;20.30;;;10.55;;
47856;SDS011;33618;49.972;8.242;2022-11-12T09:59:20;22.77;;;11.18;;
47856;SDS011;33618;49.972;8.242;2022-11-12T10:08:19;25.77;;;12.32;;
47856;SDS011;33618;49.972;8.242;2022-11-12T10:22:12;23.02;;;12.10;;
47856;SDS011;33618;49.972;8.242;2022-11-12T10:25:14;20.40;;;12.73;;
47856;SDS011;33618;49.972;8.242;2022-11-12T10:27:43;22.77;;;12.63;;
47856;SDS011;33618;49.972;8.242;2022-11-12T10:30:15;26.33;;;13.50;;
47856;SDS011;33618;49.972;8.242;2022-11-12T10:32:44;23.55;;;12.82;;
47856;SDS011;33618;49.972;8.242;2022-11-12T10:35:19;24.58;;;13.13;;
47856;SDS011;33618;49.972;8.242;2022-11-12T10:45:28;22.42;;;12.75;;
47856;SDS011;33618;49.972;8.242;2022-11-12T10:47:55;23.40;;;13.00;;
47856;SDS011;33618;49.972;8.242;2022-11-12T10:53:07;26.10;;;14.05;;
47856;SDS011;33618;49.972;8.242;2022-11-12T10:55:39;34.20;;;14.32;;
47856;SDS011;33618;49.972;8.242;2022-11-12T10:58:21;24.38;;;12.88;;
47856;SDS011;33618;49.972;8.242;2022-11-12T11:00:56;24.00;;;13.68;;
47856;SDS011;33618;49.972;8.242;2022-11-12T11:03:30;25.95;;;14.02;;
47856;SDS011;33618;49.972;8.242;2022-11-12T11:06:02;42.08;;;15.27;;
47856;SDS011;33618;49.972;8.242;2022-11-12T11:08:31;68.78;;;16.80;;
47856;SDS011;33618;49.972;8.242;2022-11-12T11:11:18;24.80;;;14.55;;
47856;SDS011;33618;49.972;8.242;2022-11-12T11:13:56;27.90;;;14.30;;
47856;SDS011;33618;49.972;8.242;2022-11-12T11:16:47;28.60;;;14.70;;
47856;SDS011;33618;49.972;8.242;2022-11-12T11:19:19;30.05;;;15.30;;
47856;SDS011;33618;49.972;8.242;2022-11-12T11:24:19;27.85;;;16.40;;
47856;SDS011;33618;49.972;8.242;2022-11-12T11:32:16;27.10;;;15.52;;
47856;SDS011;33618;49.972;8.242;2022-11-12T11:35:10;31.95;;;17.30;;
47856;SDS011;33618;49.972;8.242;2022-11-12T11:40:50;29.30;;;17.02;;
47856;SDS011;33618;49.972;8.242;2022-11-12T11:49:21;32.15;;;18.15;;
47856;SDS011;33618;49.972;8.242;2022-11-12T11:52:25;29.13;;;17.77;;
47856;SDS011;33618;49.972;8.242;2022-11-12T11:58:11;32.20;;;18.00;;
47856;SDS011;33618;49.972;8.242;2022-11-12T12:06:23;36.58;;;19.73;;
47856;SDS011;33618;49.972;8.242;2022-11-12T12:18:10;35.15;;;20.20;;
47856;SDS011;33618;49.972;8.242;2022-11-12T12:23:51;31.23;;;19.42;;
47856;SDS011;33618;49.972;8.242;2022-11-12T12:26:27;34.60;;;20.30;;
47856;SDS011;33618;49.972;8.242;2022-11-12T12:31:39;34.80;;;20.30;;
47856;SDS011;33618;49.972;8.242;2022-11-12T12:36:44;32.13;;;20.05;;
47856;SDS011;33618;49.972;8.242;2022-11-12T12:39:25;35.70;;;20.35;;
47856;SDS011;33618;49.972;8.242;2022-11-12T12:42:04;37.70;;;20.55;;
47856;SDS011;33618;49.972;8.242;2022-11-12T12:44:46;37.85;;;22.02;;
47856;SDS011;33618;49.972;8.242;2022-11-12T12:47:30;38.25;;;21.98;;
47856;SDS011;33618;49.972;8.242;2022-11-12T12:50:09;40.22;;;21.92;;
47856;SDS011;33618;49.972;8.242;2022-11-12T12:58:25;38.80;;;21.70;;
47856;SDS011;33618;49.972;8.242;2022-11-12T13:01:03;38.40;;;21.63;;
47856;SDS011;33618;49.972;8.242;2022-11-12T13:08:56;36.58;;;22.05;;
47856;SDS011;33618;49.972;8.242;2022-11-12T13:17:03;38.65;;;23.00;;
47856;SDS011;33618;49.972;8.242;2022-11-12T13:20:17;37.20;;;21.48;;
47856;SDS011;33618;49.972;8.242;2022-11-12T13:32:55;34.67;;;21.42;;
47856;SDS011;33618;49.972;8.242;2022-11-12T13:35:37;35.45;;;21.35;;
47856;SDS011;33618;49.972;8.242;2022-11-12T13:38:11;37.55;;;22.05;;
47856;SDS011;33618;49.972;8.242;2022-11-12T13:43:35;35.20;;;21.42;;
47856;SDS011;33618;49.972;8.242;2022-11-12T13:48:39;37.08;;;21.27;;
47856;SDS011;33618;49.972;8.242;2022-11-12T13:51:13;39.10;;;21.88;;
47856;SDS011;33618;49.972;8.242;2022-11-12T13:53:57;35.13;;;21.25;;
47856;SDS011;33618;49.972;8.242;2022-11-12T13:56:33;33.40;;;20.67;;
47856;SDS011;33618;49.972;8.242;2022-11-12T14:02:01;37.22;;;21.23;;
47856;SDS011;33618;49.972;8.242;2022-11-12T14:04:30;34.92;;;21.23;;
47856;SDS011;33618;49.972;8.242;2022-11-12T14:21:19;38.35;;;22.08;;
47856;SDS011;33618;49.972;8.242;2022-11-12T14:23:47;36.72;;;22.65;;
47856;SDS011;33618;49.972;8.242;2022-11-12T14:26:35;35.50;;;21.90;;
47856;SDS011;33618;49.972;8.242;2022-11-12T14:29:04;37.20;;;21.65;;
47856;SDS011;33618;49.972;8.242;2022-11-12T14:31:31;36.05;;;22.83;;
47856;SDS011;33618;49.972;8.242;2022-11-12T14:36:45;38.08;;;22.33;;
47856;SDS011;33618;49.972;8.242;2022-11-12T14:39:13;36.38;;;22.92;;
47856;SDS011;33618;49.972;8.242;2022-11-12T14:41:40;41.70;;;23.80;;
47856;SDS011;33618;49.972;8.242;2022-11-12T14:44:15;34.20;;;21.77;;
47856;SDS011;33618;49.972;8.242;2022-11-12T14:46:46;35.97;;;21.60;;
47856;SDS011;33618;49.972;8.242;2022-11-12T14:52:29;36.15;;;22.30;;
47856;SDS011;33618;49.972;8.242;2022-11-12T14:55:08;36.03;;;22.10;;
47856;SDS011;33618;49.972;8.242;2022-11-12T14:57:38;39.15;;;22.45;;
47856;SDS011;33618;49.972;8.242;2022-11-12T15:00:24;43.33;;;24.45;;
47856;SDS011;33618;49.972;8.242;2022-11-12T15:03:04;41.22;;;24.00;;
47856;SDS011;33618;49.972;8.242;2022-11-12T15:05:36;43.47;;;25.05;;
47856;SDS011;33618;49.972;8.242;2022-11-12T15:08:32;43.65;;;25.35;;
47856;SDS011;33618;49.972;8.242;2022-11-12T15:13:50;42.30;;;24.23;;
47856;SDS011;33618;49.972;8.242;2022-11-12T15:16:28;43.15;;;25.42;;
47856;SDS011;33618;49.972;8.242;2022-11-12T15:19:02;48.38;;;24.85;;
47856;SDS011;33618;49.972;8.242;2022-11-12T15:21:44;42.35;;;23.95;;
47856;SDS011;33618;49.972;8.242;2022-11-12T15:27:33;43.70;;;22.85;;
47856;SDS011;33618;49.972;8.242;2022-11-12T15:30:07;40.72;;;23.77;;
47856;SDS011;33618;49.972;8.242;2022-11-12T15:35:37;41.20;;;24.05;;
47856;SDS011;33618;49.972;8.242;2022-11-12T15:38:11;41.67;;;24.60;;
47856;SDS011;33618;49.972;8.242;2022-11-12T15:40:54;41.75;;;25.10;;
47856;SDS011;33618;49.972;8.242;2022-11-12T15:43:26;41.45;;;25.13;;
47856;SDS011;33618;49.972;8.242;2022-11-12T15:45:55;37.55;;;22.77;;
47856;SDS011;33618;49.972;8.242;2022-11-12T15:48:23;44.88;;;23.80;;
47856;SDS011;33618;49.972;8.242;2022-11-12T15:50:50;34.72;;;22.63;;
47856;SDS011;33618;49.972;8.242;2022-11-12T15:53:17;36.60;;;22.52;;
47856;SDS011;33618;49.972;8.242;2022-11-12T15:55:44;37.50;;;23.67;;
47856;SDS011;33618;49.972;8.242;2022-11-12T15:58:26;40.80;;;24.00;;
47856;SDS011;33618;49.972;8.242;2022-11-12T16:00:57;38.80;;;23.33;;
47856;SDS011;33618;49.972;8.242;2022-11-12T16:03:26;42.47;;;23.63;;
47856;SDS011;33618;49.972;8.242;2022-11-12T16:05:55;41.30;;;23.75;;
47856;SDS011;33618;49.972;8.242;2022-11-12T16:08:22;38.35;;;23.17;;
47856;SDS011;33618;49.972;8.242;2022-11-12T16:10:49;45.40;;;23.83;;
47856;SDS011;33618;49.972;8.242;2022-11-12T16:13:18;44.42;;;24.08;;
47856;SDS011;33618;49.972;8.242;2022-11-12T16:15:56;38.45;;;22.80;;
47856;SDS011;33618;49.972;8.242;2022-11-12T16:18:24;40.25;;;23.02;;
47856;SDS011;33618;49.972;8.242;2022-11-12T16:20:51;38.83;;;23.75;;
47856;SDS011;33618;49.972;8.242;2022-11-12T16:23:18;43.65;;;23.92;;
47856;SDS011;33618;49.972;8.242;2022-11-12T16:25:45;42.13;;;23.23;;
47856;SDS011;33618;49.972;8.242;2022-11-12T16:28:13;41.72;;;22.95;;
47856;SDS011;33618;49.972;8.242;2022-11-12T16:30:41;41.92;;;22.88;;
47856;SDS011;33618;49.972;8.242;2022-11-12T16:33:10;38.70;;;23.13;;
47856;SDS011;33618;49.972;8.242;2022-11-12T16:35:38;42.70;;;22.83;;
47856;SDS011;33618;49.972;8.242;2022-11-12T16:38:09;37.20;;;22.65;;
47856;SDS011;33618;49.972;8.242;2022-11-12T16:40:42;38.42;;;23.23;;
47856;SDS011;33618;49.972;8.242;2022-11-12T16:43:09;42.17;;;23.42;;
47856;SDS011;33618;49.972;8.242;2022-11-12T16:45:38;41.30;;;23.73;;
47856;SDS011;33618;49.972;8.242;2022-11-12T16:48:16;47.38;;;23.60;;
47856;SDS011;33618;49.972;8.242;2022-11-12T16:50:45;47.45;;;24.33;;
47856;SDS011;33618;49.972;8.242;2022-11-12T16:53:12;43.78;;;23.98;;
47856;SDS011;33618;49.972;8.242;2022-11-12T16:55:39;45.55;;;23.13;;
47856;SDS011;33618;49.972;8.242;2022-11-12T16:58:10;43.90;;;24.08;;
47856;SDS011;33618;49.972;8.242;2022-11-12T17:00:41;39.70;;;23.42;;
47856;SDS011;33618;49.972;8.242;2022-11-12T17:03:11;40.83;;;22.92;;
47856;SDS011;33618;49.972;8.242;2022-11-12T17:05:38;43.20;;;23.60;;
47856;SDS011;33618;49.972;8.242;2022-11-12T17:08:07;38.80;;;22.45;;
47856;SDS011;33618;49.972;8.242;2022-11-12T17:10:35;43.40;;;25.00;;
47856;SDS011;33618;49.972;8.242;2022-11-12T17:13:02;51.47;;;26.23;;
47856;SDS011;33618;49.972;8.242;2022-11-12T17:15:29;42.08;;;24.00;;
47856;SDS011;33618;49.972;8.242;2022-11-12T17:17:56;47.28;;;24.92;;
47856;SDS011;33618;49.972;8.242;2022-11-12T17:20:23;50.30;;;26.30;;
47856;SDS011;33618;49.972;8.242;2022-11-12T17:22:50;45.05;;;25.08;;